PAGA

Edward G Pitka Sr Airport

Galena, Alaska, USA
METAR PAGA 202156Z AUTO 36004KT 10SM CLR 19/10 A3024 RMK AO2 SLP242 T01890100
Observed Flight Rules
Jul-20 @ 21:56 UTC (7 minutes ago) Visual Flight Rules
Wind Visibility Clouds
360° at 4 knots 10 miles
  • Clear skies
Temperatures Readings
Current 19°C / 66°F
Dewpoint 10°C / 50°F
Humidity 56%
Altimeter 30.24" Hg
Pressure 1024.2 hPa
Elevation 46
METAR PAGA 202156Z AUTO 36004KT 10SM CLR 19/10 A3024 RMK AO2 SLP242 T01890100
Observed Flight Rules
Jul-20 @ 21:56 UTC
(7 minutes ago)
VFR
Wind Visibility
360° at 4 knots 10 miles
Clouds
  • Clear skies
Temperature Dewpoint
19°C / 66°F 10°C / 50°F
Humidity Altimeter Pressure
56% 30.24" Hg 1024.2 hPa